Time;durP1;ratioP1;P1;durP2;ratioP2;P2;SDS_P1;SDS_P2;PMS_P1;PMS_P2;Temp;Humidity;BMP_temperature;BMP_pressure;BME280_temperature;BME280_humidity;BME280_pressure;Samples;Min_cycle;Max_cycle;Signal;HPM_P1;HPM_P2
2022/07/04 00:00:49;;;;;;;7.18;5.88;;;;;;;23.01;85.15;97575.31;5013028;28;20040;-84
2022/07/04 00:03:14;;;;;;;9.80;7.03;;;;;;;22.93;88.40;97578.06;5030640;28;20095;-86
2022/07/04 00:05:40;;;;;;;9.38;7.63;;;;;;;22.87;90.60;97580.63;5013844;28;20068;-84
2022/07/04 00:08:05;;;;;;;11.73;7.13;;;;;;;22.70;95.12;97573.47;4997982;28;20021;-85
2022/07/04 00:10:31;;;;;;;11.10;8.25;;;;;;;22.54;100.00;97587.91;5030651;28;20196;-85
2022/07/04 00:12:57;;;;;;;11.57;9.43;;;;;;;22.12;100.00;97571.63;5014058;28;20025;-85
2022/07/04 00:15:22;;;;;;;14.05;9.15;;;;;;;21.99;100.00;97569.41;5012635;28;20072;-85
2022/07/04 00:17:48;;;;;;;14.77;10.32;;;;;;;21.80;100.00;97564.19;5014027;28;20036;-85
2022/07/04 00:20:13;;;;;;;18.40;11.02;;;;;;;21.61;100.00;97557.13;4997417;28;20033;-84
2022/07/04 00:22:39;;;;;;;13.80;10.85;;;;;;;21.59;100.00;97574.66;5014489;28;20029;-82
2022/07/04 00:25:05;;;;;;;13.10;10.70;;;;;;;21.42;100.00;97573.69;5012978;28;20033;-86
2022/07/04 00:27:31;;;;;;;13.98;10.82;;;;;;;21.30;100.00;97574.13;5013671;28;20401;-86
2022/07/04 00:29:56;;;;;;;15.98;11.15;;;;;;;21.30;100.00;97575.00;5014022;28;20029;-85
2022/07/04 00:32:23;;;;;;;15.98;11.25;;;;;;;21.24;100.00;97581.06;5002415;28;20042;-84
2022/07/04 00:34:49;;;;;;;15.00;10.95;;;;;;;21.20;100.00;97573.38;4990735;28;20034;-85
2022/07/04 00:37:14;;;;;;;21.25;11.50;;;;;;;21.18;100.00;97576.28;5002183;28;20037;-86
2022/07/04 00:39:40;;;;;;;16.95;11.52;;;;;;;21.19;100.00;97574.41;4990418;28;20488;-86
2022/07/04 00:42:05;;;;;;;17.05;11.50;;;;;;;21.17;100.00;97570.97;4994686;28;20128;-85
2022/07/04 00:44:35;;;;;;;14.80;11.35;;;;;;;21.17;100.00;97577.28;4998613;28;20368;-85
2022/07/04 00:47:00;;;;;;;13.50;11.27;;;;;;;21.17;100.00;97568.25;4990116;28;20581;-85
2022/07/04 00:49:26;;;;;;;15.10;10.75;;;;;;;21.09;100.00;97563.63;4994183;28;20049;-85
2022/07/04 00:51:51;;;;;;;17.65;11.65;;;;;;;21.07;100.00;97568.34;4991159;28;20034;-84
2022/07/04 00:54:21;;;;;;;16.55;10.63;;;;;;;21.10;100.00;97561.78;4991567;28;20029;-85
2022/07/04 00:56:47;;;;;;;21.20;11.55;;;;;;;21.03;100.00;97565.09;4991976;28;20034;-85
2022/07/04 00:59:13;;;;;;;16.17;11.07;;;;;;;21.00;100.00;97570.84;4991378;28;20033;-85
2022/07/04 01:01:38;;;;;;;17.77;11.80;;;;;;;20.99;100.00;97571.84;4991690;28;20034;-85
2022/07/04 01:04:05;;;;;;;16.33;11.18;;;;;;;20.93;100.00;97580.66;4992422;28;20098;-84
2022/07/04 01:06:31;;;;;;;17.25;11.77;;;;;;;20.90;100.00;97572.81;4991712;28;20038;-85
2022/07/04 01:08:57;;;;;;;17.60;11.30;;;;;;;20.88;100.00;97577.56;4990116;28;20053;-85
2022/07/04 01:11:23;;;;;;;13.63;11.23;;;;;;;20.85;100.00;97583.31;4989999;28;20037;-84
2022/07/04 01:13:48;;;;;;;15.52;10.98;;;;;;;20.77;100.00;97572.38;4974552;28;20038;-85
2022/07/04 01:16:14;;;;;;;18.02;11.35;;;;;;;20.78;100.00;97567.78;4998494;28;20065;-85
2022/07/04 01:18:41;;;;;;;13.07;10.73;;;;;;;20.86;100.00;97582.28;4978147;28;20030;-86
2022/07/04 01:21:07;;;;;;;14.43;10.45;;;;;;;20.85;100.00;97564.28;4993994;28;20029;-86
2022/07/04 01:23:39;;;;;;;12.13;7.93;;;;;;;21.06;100.00;97556.63;4993654;28;20113;-85
2022/07/04 01:26:05;;;;;;;;;;;;;;;21.25;100.00;97560.16;4989735;28;20474;-85
2022/07/04 01:28:30;;;;;;;;;;;;;;;21.25;100.00;97565.59;4995457;28;19929;-86
2022/07/04 01:30:56;;;;;;;;;;;;;;;21.23;100.00;97562.16;4995559;28;20312;-85
2022/07/04 01:33:21;;;;;;;;;;;;;;;21.22;100.00;97565.94;4996965;28;19921;-85
2022/07/04 01:35:47;;;;;;;;;;;;;;;21.13;100.00;97561.44;4994797;28;19952;-86
2022/07/04 01:38:12;;;;;;;;;;;;;;;21.00;100.00;97561.84;4995812;28;20300;-86
2022/07/04 01:40:37;;;;;;;;;;;;;;;20.96;100.00;97577.63;4995912;28;20400;-85
2022/07/04 01:43:03;;;;;;;;;;;;;;;20.88;100.00;97574.84;4994424;28;19913;-86
2022/07/04 01:45:28;;;;;;;;;;;;;;;20.76;100.00;97576.13;4995715;28;19928;-84
2022/07/04 01:47:54;;;;;;;;;;;;;;;20.68;100.00;97586.91;4997813;28;19964;-84
2022/07/04 01:50:19;;;;;;;;;;;;;;;20.64;100.00;97579.22;4997683;28;20001;-84
2022/07/04 01:52:45;;;;;;;;;;;;;;;20.63;100.00;97575.66;4995848;28;19917;-84
2022/07/04 01:55:11;;;;;;;;;;;;;;;20.63;100.00;97586.53;4996005;28;19909;-85
2022/07/04 01:57:37;;;;;;;;;;;;;;;20.61;100.00;97588.53;4996114;28;20392;-85
2022/07/04 02:02:48;;;;;;;;;;;;;;;20.45;100.00;97586.53;4997684;28;20556;-86
2022/07/04 02:05:15;;;;;;;;;;;;;;;20.50;100.00;97586.06;4993951;28;19953;-86
2022/07/04 02:07:40;;;;;;;;;;;;;;;20.34;100.00;97588.63;5004322;28;20016;-85
2022/07/04 02:10:05;;;;;;;;;;;;;;;20.32;100.00;97587.94;4994272;28;19961;-86
2022/07/04 02:15:15;;;;;;;;;;;;;;;20.25;100.00;97594.94;5001143;28;19936;-82
2022/07/04 02:17:40;;;;;;;;;;;;;;;20.21;100.00;97593.56;4992800;28;19914;-82
2022/07/04 02:20:06;;;;;;;;;;;;;;;20.22;100.00;97597.97;4996283;28;19924;-81
2022/07/04 02:22:31;;;;;;;;;;;;;;;20.22;100.00;97597.97;4976099;28;19913;-81
2022/07/04 02:24:57;;;;;;;;;;;;;;;20.21;100.00;97588.97;4995317;28;20052;-81
2022/07/04 02:27:22;;;;;;;;;;;;;;;20.20;100.00;97597.28;4992223;28;19913;-82
2022/07/04 02:29:48;;;;;;;;;;;;;;;20.18;100.00;97602.03;4991973;28;19914;-86
2022/07/04 02:32:13;;;;;;;;;;;;;;;20.17;100.00;97603.00;5011363;28;20322;-83
2022/07/04 02:34:38;;;;;;;;;;;;;;;20.19;100.00;97603.69;5012952;28;20285;-84
2022/07/04 02:37:04;;;;;;;;;;;;;;;20.15;100.00;97602.31;5016949;28;19913;-86
2022/07/04 02:39:29;;;;;;;;;;;;;;;20.12;100.00;97606.19;5015725;28;19917;-85
2022/07/04 02:41:55;;;;;;;;;;;;;;;20.05;100.00;97613.25;5016014;28;19956;-86
2022/07/04 02:44:20;;;;;;;;;;;;;;;20.01;100.00;97611.84;5015777;28;20394;-85
2022/07/04 02:46:45;;;;;;;;;;;;;;;19.99;100.00;97614.69;5015555;28;19913;-86
2022/07/04 02:49:11;;;;;;;;;;;;;;;19.96;100.00;97609.56;5015433;28;20474;-85
2022/07/04 02:51:36;;;;;;;;;;;;;;;19.97;100.00;97616.72;5015066;28;19913;-83
2022/07/04 02:54:02;;;;;;;;;;;;;;;19.90;100.00;97615.59;5041824;28;19917;-84
2022/07/04 02:56:27;;;;;;;;;;;;;;;19.88;100.00;97612.19;5015049;28;20351;-83
2022/07/04 02:58:53;;;;;;;;;;;;;;;19.90;100.00;97612.06;5015538;28;19913;-84
2022/07/04 03:01:19;;;;;;;;;;;;;;;19.89;100.00;97607.63;5016925;28;20044;-86
2022/07/04 03:03:45;;;;;;;;;;;;;;;19.86;100.00;97607.91;5017119;28;19948;-85
2022/07/04 03:06:10;;;;;;;;;;;;;;;19.85;100.00;97615.19;5017516;28;19920;-87
2022/07/04 03:08:35;;;;;;;;;;;;;;;19.83;100.00;97608.22;5049353;28;19913;-84
2022/07/04 03:11:01;;;;;;;;;;;;;;;19.92;100.00;97613.59;5015514;28;19913;-85
2022/07/04 03:13:26;;;;;;;;;;;;;;;19.99;100.00;97616.56;5016105;28;20411;-86
2022/07/04 03:15:52;;;;;;;;;;;;;;;20.01;100.00;97623.56;5016115;28;19917;-85
2022/07/04 03:18:17;;;;;;;;;;;;;;;20.01;100.00;97618.13;5015868;28;20307;-84
2022/07/04 03:20:43;;;;;;;;;;;;;;;20.00;100.00;97623.69;5022299;28;19967;-85
2022/07/04 03:23:08;;;;;;;;;;;;;;;20.00;100.00;97623.69;5015493;28;19963;-87
2022/07/04 03:25:34;;;;;;;;;;;;;;;20.05;100.00;97634.97;5016959;28;19913;-89
2022/07/04 03:27:59;;;;;;;;;;;;;;;20.04;100.00;97633.25;5013006;28;19925;-81
2022/07/04 03:30:25;;;;;;;;;;;;;;;19.97;100.00;97624.84;5014671;28;19913;-81
2022/07/04 03:32:50;;;;;;;;;;;;;;;20.05;100.00;97639.53;5037998;28;19932;-82
2022/07/04 03:35:15;;;;;;;;;;;;;;;20.08;100.00;97633.81;5014986;28;20289;-78
2022/07/04 03:37:41;;;;;;;;;;;;;;;20.11;100.00;97638.94;5015142;28;19938;-87
2022/07/04 03:40:06;;;;;;;;;;;;;;;20.07;100.00;97635.66;5022344;28;19939;-81
2022/07/04 03:42:32;;;;;;;;;;;;;;;20.21;100.00;97634.31;5016287;28;19920;-80
2022/07/04 03:44:57;;;;;;;;;;;;;;;20.18;100.00;97630.00;5014909;28;19963;-82
2022/07/04 03:47:23;;;;;;;;;;;;;;;20.28;100.00;97629.97;5013991;28;19936;-81
2022/07/04 03:49:48;;;;;;;;;;;;;;;20.33;100.00;97625.78;5013440;28;20024;-80
2022/07/04 03:52:14;;;;;;;;;;;;;;;20.39;100.00;97633.38;5021740;28;20394;-81
2022/07/04 03:54:39;;;;;;;;;;;;;;;20.51;100.00;97631.28;5013849;28;20503;-82
2022/07/04 03:57:04;;;;;;;;;;;;;;;20.55;100.00;97621.78;5013006;28;20019;-83
2022/07/04 03:59:30;;;;;;;;;;;;;;;20.69;100.00;97626.69;5012283;28;19929;-80
2022/07/04 04:01:55;;;;;;;;;;;;;;;20.75;100.00;97626.06;5011670;28;19952;-82
2022/07/04 04:07:05;;;;;;;;;;;;;;;20.91;100.00;97622.63;5011003;28;19972;-82
2022/07/04 04:09:30;;;;;;;;;;;;;;;21.01;100.00;97632.38;5012565;28;20388;-81
2022/07/04 04:11:56;;;;;;;;;;;;;;;21.18;100.00;97632.56;5010948;28;19945;-81
2022/07/04 04:14:21;;;;;;;;;;;;;;;21.31;100.00;97627.56;5012528;28;19917;-81
2022/07/04 04:16:47;;;;;;;;;;;;;;;21.27;100.00;97626.16;5010401;28;20000;-82
2022/07/04 04:19:12;;;;;;;;;;;;;;;21.27;100.00;97629.72;5012589;28;19939;-82
2022/07/04 04:21:37;;;;;;;;;;;;;;;21.39;100.00;97635.75;5029955;28;19916;-82
2022/07/04 04:24:03;;;;;;;;;;;;;;;21.47;100.00;97628.50;5013767;28;20384;-83
2022/07/04 04:26:28;;;;;;;;;;;;;;;21.64;100.00;97626.75;5013479;28;20304;-81
2022/07/04 04:28:54;;;;;;;;;;;;;;;21.70;100.00;97630.66;5010133;28;19925;-81
2022/07/04 04:31:19;;;;;;;;;;;;;;;21.78;100.00;97634.28;5010486;28;19940;-81
2022/07/04 04:33:45;;;;;;;;;;;;;;;21.91;100.00;97639.31;5013427;28;19920;-81
2022/07/04 04:36:10;;;;;;;;;;;;;;;21.98;100.00;97638.50;5012836;28;19962;-81
2022/07/04 04:38:36;;;;;;;;;;;;;;;22.03;100.00;97638.88;5013525;28;19913;-82
2022/07/04 04:41:01;;;;;;;;;;;;;;;22.02;100.00;97630.88;5013695;28;19975;-81
2022/07/04 04:43:27;;;;;;;;;;;;;;;22.00;100.00;97641.91;5010033;28;20364;-81
2022/07/04 04:45:52;;;;;;;;;;;;;;;22.14;100.00;97635.88;5010386;28;20384;-82
2022/07/04 04:48:17;;;;;;;;;;;;;;;22.34;100.00;97641.00;5010063;28;19924;-81
2022/07/04 04:50:43;;;;;;;;;;;;;;;22.51;100.00;97637.34;5013276;28;19913;-81
2022/07/04 04:53:08;;;;;;;;;;;;;;;22.67;100.00;97638.22;5015985;28;19913;-80
2022/07/04 04:55:34;;;;;;;;;;;;;;;23.87;96.17;97642.97;5029224;28;19924;-80
2022/07/04 04:57:59;;;;;;;;;;;;;;;24.97;85.95;97649.09;5014854;28;19920;-82
2022/07/04 05:00:24;;;;;;;;;;;;;;;25.50;81.22;97645.41;5014078;28;19921;-82
2022/07/04 05:02:50;;;;;;;;;;;;;;;26.44;77.42;97644.72;5014483;28;20368;-82
2022/07/04 05:05:15;;;;;;;;;;;;;;;27.79;69.38;97641.03;5013909;28;19990;-82
2022/07/04 05:07:41;;;;;;;;;;;;;;;28.18;64.81;97632.22;5030853;28;19924;-82
2022/07/04 05:10:06;;;;;;;;;;;;;;;29.03;62.65;97640.81;5014973;28;20401;-82
2022/07/04 05:12:32;;;;;;;;;;;;;;;30.01;60.14;97640.03;5016095;28;19921;-81
2022/07/04 05:14:57;;;;;;;;;;;;;;;30.68;57.97;97633.25;5014300;28;19928;-82
2022/07/04 05:17:23;;;;;;;;;;;;;;;31.05;56.00;97635.22;5014186;28;19955;-80
2022/07/04 05:19:49;;;;;;;;;;;;;;;31.43;54.01;97635.19;5011022;28;20014;-81
2022/07/04 05:22:14;;;;;;;;;;;;;;;31.53;53.42;97630.84;5011347;28;20391;-81
2022/07/04 05:24:40;;;;;;;;;;;;;;;32.10;52.22;97634.41;5013097;28;20047;-81
2022/07/04 05:27:08;;;;;;;;;;;;;;;32.70;49.54;97636.28;5011400;28;19913;-81
2022/07/04 05:29:34;;;;;;;;;;;;;;;32.05;49.84;97628.72;5013808;28;19921;-80
2022/07/04 05:31:59;;;;;;;;;;;;;;;32.15;49.80;97634.56;5013532;28;20051;-81
2022/07/04 05:34:24;;;;;;;;;;;;;;;32.85;49.15;97629.50;5014106;28;19917;-80
2022/07/04 05:36:50;;;;;;;;;;;;;;;32.98;48.74;97643.19;5012395;28;19921;-81
2022/07/04 05:39:15;;;;;;;;;;;;;;;33.51;47.73;97640.47;5010879;28;19924;-81
2022/07/04 05:41:41;;;;;;;;;;;;;;;33.55;47.07;97637.00;5013624;28;19921;-81
2022/07/04 05:44:06;;;;;;;;;;;;;;;34.03;45.80;97639.59;5014270;28;19924;-81
2022/07/04 05:46:32;;;;;;;;;;;;;;;34.94;43.53;97635.28;5013702;28;20004;-83
2022/07/04 05:48:57;;;;;;;;;;;;;;;34.59;43.94;97636.22;5014272;28;19913;-83
2022/07/04 05:51:22;;;;;;;;;;;;;;;33.25;46.06;97641.75;5013850;28;20293;-83
2022/07/04 05:53:48;;;;;;;;;;;;;;;33.68;44.96;97642.38;5013623;28;20388;-82
2022/07/04 05:56:13;;;;;;;;;;;;;;;33.19;46.53;97646.28;5014103;28;19963;-82
2022/07/04 05:58:39;;;;;;;;;;;;;;;34.39;44.71;97643.25;5008394;28;19966;-81
2022/07/04 06:01:04;;;;;;;;;;;;;;;35.05;42.00;97626.03;5011633;28;20312;-82
2022/07/04 06:03:30;;;;;;;;;;;;;;;35.28;41.80;97626.81;5012459;28;19917;-81
2022/07/04 06:05:55;;;;;;;;;;;;;;;35.74;41.39;97627.66;5013115;28;20442;-82
2022/07/04 06:08:21;;;;;;;;;;;;;;;36.76;39.76;97628.13;5013432;28;19963;-83
2022/07/04 06:10:46;;;;;;;;;;;;;;;37.46;38.13;97622.53;5020268;28;19921;-83
2022/07/04 06:13:12;;;;;;;;;;;;;;;37.98;37.39;97620.81;5010870;28;19923;-82
2022/07/04 06:15:37;;;;;;;;;;;;;;;37.90;37.41;97621.28;5010056;28;19917;-82
2022/07/04 06:18:03;;;;;;;;;;;;;;;37.68;37.42;97623.31;5011143;28;20229;-81
2022/07/04 06:20:29;;;;;;;;;;;;;;;38.57;36.59;97611.41;5011727;28;19921;-81
2022/07/04 06:22:54;;;;;;;;;;;;;;;37.28;37.52;97620.09;5030700;28;19920;-82
2022/07/04 06:25:20;;;;;;;;;;;;;;;36.84;38.22;97622.91;5015624;28;19913;-83
2022/07/04 06:27:46;;;;;;;;;;;;;;;37.67;36.91;97607.66;5015271;28;19912;-82
2022/07/04 06:30:12;;;;;;;;;;;;;;;38.52;35.71;97600.19;5015492;28;19913;-83
2022/07/04 06:32:50;;;;;;;;;;;;;;;38.92;35.12;97601.22;5015405;28;19917;-82
2022/07/04 06:38:04;;;;;;;;;;;;;;;39.83;32.93;97592.19;5031884;28;19922;-80
2022/07/04 06:40:29;;;;;;;;;;;;;;;38.13;34.47;97603.28;5019782;28;20299;-81
2022/07/04 06:42:54;;;;;;;;;;;;;;;37.66;35.65;97607.91;5015211;28;19952;-82
2022/07/04 06:45:20;;;;;;;;;;;;;;;37.45;36.63;97610.53;5014088;28;19921;-82
2022/07/04 06:47:45;;;;;;;;;;;;;;;37.38;36.48;97609.00;5015191;28;19913;-82
2022/07/04 06:50:12;;;;;;;;;;;;;;;37.93;35.85;97609.56;5024872;28;19920;-84
2022/07/04 06:52:37;;;;;;;;;;;;;;;38.87;35.33;97595.63;5015151;28;19909;-83
2022/07/04 06:55:03;;;;;;;;;;;;;;;39.35;34.02;97601.91;5011716;28;19917;-83
2022/07/04 06:57:28;;;;;;;;;;;;;;;39.89;33.17;97600.31;5013788;28;19920;-82
2022/07/04 06:59:53;;;;;;;;;;;;;;;39.88;33.22;97595.81;5013748;28;19917;-82
2022/07/04 07:02:19;;;;;;;;;;;;;;;39.58;33.93;97593.00;5013956;28;19989;-79
2022/07/04 07:04:44;;;;;;;;;;;;;;;38.32;34.82;97593.34;5014773;28;19909;-79
2022/07/04 07:07:10;;;;;;;;;;;;;;;37.77;36.21;97596.56;5014717;28;20004;-81
2022/07/04 07:09:35;;;;;;;;;;;;;;;38.71;35.28;97595.78;5032445;28;19917;-81
2022/07/04 07:12:01;;;;;;;;;;;;;;;38.84;34.65;97598.13;5014296;28;19909;-82
2022/07/04 07:14:26;;;;;;;;;;;;;;;39.31;34.58;97592.41;5014337;28;20381;-82
2022/07/04 07:16:52;;;;;;;;;;;;;;;39.91;33.51;97583.22;5014943;28;19913;-82
2022/07/04 07:19:17;;;;;;;;;;;;;;;39.86;33.59;97586.03;5012291;28;19913;-83
2022/07/04 07:21:42;;;;;;;;;;;;;;;40.45;32.17;97577.81;5010884;28;20410;-81
2022/07/04 07:24:08;;;;;;;;;;;;;;;38.46;34.08;97576.94;5014301;28;19913;-82
2022/07/04 07:26:33;;;;;;;;;;;;;;;37.06;35.89;97583.88;5013760;28;19917;-77
2022/07/04 07:28:59;;;;;;;;;;;;;;;38.70;34.42;97574.53;5030666;28;19912;-77
2022/07/04 07:31:24;;;;;;;;;;;;;;;39.78;32.84;97572.59;5013924;28;19960;-78
2022/07/04 07:33:49;;;;;;;;;;;;;;;40.11;32.62;97566.41;5014194;28;19917;-77
2022/07/04 07:36:15;;;;;;;;;;;;;;;39.40;33.25;97568.34;5014025;28;19919;-78
2022/07/04 07:38:40;;;;;;;;;;;;;;;39.83;32.43;97564.16;5010851;28;19913;-77
2022/07/04 07:41:09;;;;;;;;;;;;;;;39.97;32.96;97562.44;5011569;28;20315;-77
2022/07/04 07:43:34;;;;;;;;;;;;;;;39.12;33.32;97564.06;5029403;28;19920;-78
2022/07/04 07:46:00;;;;;;;;;;;;;;;40.75;31.68;97562.84;5010701;28;20308;-77
2022/07/04 07:48:26;;;;;;;;;;;;;;;41.21;31.15;97557.84;5013954;28;19913;-78
2022/07/04 07:50:52;;;;;;;;;;;;;;;41.04;31.24;97550.63;5009765;28;19921;-77
2022/07/04 07:53:17;;;;;;;;;;;;;;;41.07;30.72;97558.47;5011833;28;20394;-77
2022/07/04 07:55:42;;;;;;;;;;;;;;;42.23;30.09;97553.09;5011777;28;20374;-77
2022/07/04 07:58:08;;;;;;;;;;;;;;;42.49;30.01;97551.66;5013843;28;20368;-77
2022/07/04 08:00:33;;;;;;;;;;;;;;;42.30;29.63;97542.34;5011734;28;19917;-77
2022/07/04 08:05:43;;;;;;;;;;;;;;;39.78;33.62;97553.78;5016306;28;20304;-78
2022/07/04 08:08:09;;;;;;;;;;;;;;;40.14;32.84;97549.00;5013433;28;19916;-77
2022/07/04 08:10:35;;;;;;;;;;;;;;;40.19;33.13;97550.94;5013683;28;20358;-78
2022/07/04 08:13:01;;;;;;;;;;;;;;;41.39;31.26;97554.38;5023048;28;20008;-78
2022/07/04 08:15:26;;;;;;;;;;;;;;;41.73;31.55;97549.59;5010337;28;20281;-77
2022/07/04 08:17:53;;;;;;;;;;;;;;;40.46;32.46;97540.19;5013785;28;20035;-78
2022/07/04 08:20:18;;;;;;;;;;;;;;;40.01;32.91;97543.94;5013178;28;19996;-78
2022/07/04 08:22:43;;;;;;;;;;;;;;;39.98;33.02;97553.78;5013223;28;19975;-77
2022/07/04 08:25:09;;;;;;;;;;;;;;;41.47;31.49;97554.56;5013161;28;19996;-78
2022/07/04 08:27:34;;;;;;;;;;;;;;;42.32;29.87;97546.53;5013391;28;19917;-78
2022/07/04 08:30:00;;;;;;;;;;;;;;;42.69;30.10;97545.81;5013299;28;19917;-79
2022/07/04 08:32:25;;;;;;;;;;;;;;;42.53;29.79;97541.47;5009153;28;19975;-80
2022/07/04 08:34:50;;;;;;;;;;;;;;;42.31;30.34;97538.38;5013114;28;19919;-78
2022/07/04 08:37:16;;;;;;;;;;;;;;;42.59;29.50;97529.91;5042264;28;19983;-77
2022/07/04 08:39:41;;;;;;;;;;;;;;;42.14;29.47;97534.03;5010830;28;19921;-78
2022/07/04 08:42:14;;;;;;;;;;;;;;;41.69;30.23;97534.44;5009085;28;19935;-78
2022/07/04 08:44:41;;;;;;;;;;;;;;;42.09;28.73;97519.16;5013359;28;19913;-77
2022/07/04 08:47:09;;;;;;;;;;;;;;;40.13;30.94;97524.03;5010064;28;20027;-77
2022/07/04 08:49:35;;;;;;;;;;;;;;;41.82;29.28;97525.34;5013415;28;19957;-77
2022/07/04 08:52:04;;;;;;;;;;;;;;;42.25;29.96;97525.50;5013175;28;19917;-78
2022/07/04 08:59:58;;;;;;;;;;;;;;;42.01;30.75;97528.25;5016409;28;19963;-78
2022/07/04 09:02:24;;;;;;;;;;;;;;;42.77;29.94;97533.03;5011462;28;19939;-77
2022/07/04 09:04:49;;;;;;;;;;;;;;;42.51;29.22;97515.63;5010980;28;19905;-77
2022/07/04 09:07:15;;;;;;;;;;;;;;;42.18;28.73;97511.78;5013402;28;20348;-77
2022/07/04 09:09:41;;;;;;;;;;;;;;;42.55;28.29;97513.88;5013434;28;19990;-79
2022/07/04 09:12:07;;;;;;;;;;;;;;;43.90;27.33;97515.81;5013212;28;19955;-78
2022/07/04 09:14:33;;;;;;;;;;;;;;;45.23;25.08;97510.78;5029431;28;19921;-78
2022/07/04 09:16:58;;;;;;;;;;;;;;;46.02;24.94;97515.94;5009805;28;19975;-78
2022/07/04 09:19:24;;;;;;;;;;;;;;;46.22;24.65;97501.22;5013172;28;20288;-78
2022/07/04 09:21:49;;;;;;;;;;;;;;;45.70;25.24;97512.22;5029886;28;20334;-78
2022/07/04 09:24:15;;;;;;;;;;;;;;;45.69;24.75;97513.38;5013424;28;19919;-78
2022/07/04 09:26:43;;;;;;;;;;;;;;;45.12;25.76;97512.22;5013123;28;19944;-77
2022/07/04 09:29:09;;;;;;;;;;;;;;;44.57;26.12;97511.44;5013567;28;19913;-78
2022/07/04 09:31:34;;;;;;;;;;;;;;;42.99;27.36;97505.16;5012958;28;20295;-78
2022/07/04 09:34:02;;;;;;;;;;;;;;;43.36;27.68;97509.94;5013184;28;19923;-77
2022/07/04 09:36:31;;;;;;;;;;;;;;;42.22;28.31;97506.41;5014909;28;19917;-79
2022/07/04 09:39:14;;;;;;;;;;;;;;;41.15;29.70;97505.63;5028346;28;19913;-79
2022/07/04 09:41:55;;;;;;;;;;;;;;;43.05;28.16;97501.97;5017204;28;19909;-78
2022/07/04 09:44:21;;;;;;;;;;;;;;;44.18;27.47;97497.81;5020102;28;19953;-78
2022/07/04 09:46:46;;;;;;;;;;;;;;;43.02;28.25;97488.50;5009783;28;19913;-78
2022/07/04 09:49:12;;;;;;;;;;;;;;;43.85;27.44;97489.69;5015373;28;19992;-78
2022/07/04 09:51:38;;;;;;;;;;;;;;;45.36;25.36;97491.31;5016627;28;20009;-78
2022/07/04 09:54:19;;;;;;;;;;;;;;;45.60;24.98;97491.81;5014457;28;19959;-78
2022/07/04 09:56:46;;;;;;;;;;;;;;;45.25;26.06;97488.72;5009803;28;19919;-78
2022/07/04 09:59:11;;;;;;;;;;;;;;;43.98;26.91;97480.41;5031170;28;19968;-77
2022/07/04 10:01:39;;;;;;;;;;;;;;;44.08;27.15;97483.88;5016529;28;19919;-79
2022/07/04 10:04:04;;;;;;;;;;;;;;;44.94;25.81;97476.47;5016666;28;19909;-78
2022/07/04 10:06:31;;;;;;;;;;;;;;;43.88;26.39;97474.97;5016121;28;19943;-79
2022/07/04 10:09:05;;;;;;;;;;;;;;;43.67;26.11;97471.66;5016034;28;20365;-79
2022/07/04 10:11:33;;;;;;;;;;;;;;;44.39;24.96;97475.66;5015999;28;21147;-79
2022/07/04 10:13:59;;;;;;;;;;;;;;;44.52;25.07;97473.97;5016151;28;19916;-77
2022/07/04 10:16:24;;;;;;;;;;;;;;;44.48;25.13;97467.28;5016007;28;20008;-78
2022/07/04 10:18:50;;;;;;;;;;;;;;;45.19;24.91;97477.84;5015519;28;19917;-79
2022/07/04 10:21:15;;;;;;;;;;;;;;;45.33;24.42;97481.47;5015610;28;19913;-78
2022/07/04 10:23:40;;;;;;;;;;;;;;;43.81;26.14;97478.19;5015887;28;19985;-79
2022/07/04 10:26:06;;;;;;;;;;;;;;;44.39;25.30;97472.84;5015575;28;19975;-79
2022/07/04 10:28:32;;;;;;;;;;;;;;;44.71;25.10;97480.34;5015505;28;19913;-79
2022/07/04 10:30:58;;;;;;;;;;;;;;;44.58;25.73;97478.41;5015519;28;19913;-78
2022/07/04 10:33:27;;;;;;;;;;;;;;;44.21;26.53;97476.59;5014299;28;20011;-79
2022/07/04 10:35:54;;;;;;;;;;;;;;;45.04;25.27;97466.94;5011285;28;20076;-79
2022/07/04 10:38:26;;;;;;;;;;;;;;;43.58;26.75;97462.25;5015111;28;19962;-79
2022/07/04 10:40:53;;;;;;;;;;;;;;;45.45;24.77;97464.78;5026019;28;19913;-78
2022/07/04 10:43:46;;;;;;;;;;;;;;;45.30;25.92;97464.31;5013412;28;19924;-78
2022/07/04 10:46:13;;;;;;;;;;;;;;;45.34;25.75;97460.53;5029504;28;19912;-78
2022/07/04 10:48:48;;;;;;;;;;;;;;;45.93;24.86;97458.44;5031230;28;20281;-82
2022/07/04 10:51:15;;;;;;;;;;;;;;;46.22;24.94;97448.28;5028939;28;19921;-81
2022/07/04 10:53:59;;;;;;;;;;;;;;;46.51;24.38;97442.06;5040666;28;20003;-83
2022/07/04 10:56:54;;;;;;;;;;;;;;;43.95;27.15;97445.22;5013142;28;20399;-84
2022/07/04 10:59:29;;;;;;;;;;;;;;;42.24;29.05;97447.88;5028201;28;19917;-84
2022/07/04 11:01:57;;;;;;;;;;;;;;;39.25;31.83;97439.53;5015794;28;19982;-83
2022/07/04 11:04:41;;;;;;;;;;;;;;;38.06;33.99;97451.75;5033339;28;19913;-84
2022/07/04 11:07:13;;;;;;;;;;;;;;;37.51;35.70;97452.25;5020219;28;20350;-83
2022/07/04 11:09:38;;;;;;;;;;;;;;;38.80;33.80;97452.31;5015154;28;19967;-85
2022/07/04 11:12:05;;;;;;;;;;;;;;;39.93;31.67;97438.84;5015136;28;20028;-82
2022/07/04 11:14:35;;;;;;;;;;;;;;;41.32;29.63;97435.84;5031761;28;20360;-83
2022/07/04 11:17:01;;;;;;;;;;;;;;;41.10;29.38;97436.34;5015769;28;19920;-84
2022/07/04 11:19:27;;;;;;;;;;;;;;;42.34;28.89;97428.03;5024735;28;20332;-83
2022/07/04 11:21:56;;;;;;;;;;;;;;;44.02;26.19;97436.34;5015131;28;19913;-83
2022/07/04 11:24:22;;;;;;;;;;;;;;;43.49;26.30;97419.00;5008621;28;19944;-82
2022/07/04 11:26:47;;;;;;;;;;;;;;;43.83;26.03;97419.50;5048054;28;20347;-79
2022/07/04 11:29:13;;;;;;;;;;;;;;;44.60;26.78;97428.94;5013165;28;19917;-83
2022/07/04 11:31:39;;;;;;;;;;;;;;;42.87;26.71;97412.66;5028323;28;19943;-82
2022/07/04 11:34:05;;;;;;;;;;;;;;;43.80;26.22;97422.09;5009932;28;19920;-84
2022/07/04 11:36:30;;;;;;;;;;;;;;;44.14;26.50;97416.91;4994954;28;19913;-83
2022/07/04 11:38:57;;;;;;;;;;;;;;;42.81;28.57;97413.88;5010927;28;19948;-82
2022/07/04 11:47:12;;;;;;;;;;;;;;;43.32;27.97;97407.44;4997794;28;20361;-83
2022/07/04 11:49:42;;;;;;;;;;;;;;;42.28;29.80;97416.03;5012481;28;19913;-83
2022/07/04 11:52:08;;;;;;;;;;;;;;;40.73;31.31;97419.16;5011056;28;19914;-83
2022/07/04 11:54:33;;;;;;;;;;;;;;;40.64;31.52;97418.91;5011359;28;19917;-83
2022/07/04 11:57:16;;;;;;;;;;;;;;;41.03;30.08;97402.97;5011308;28;19967;-82
2022/07/04 11:59:42;;;;;;;;;;;;;;;42.78;27.94;97394.78;5010805;28;19913;-83
2022/07/04 12:02:14;;;;;;;;;;;;;;;43.82;26.49;97389.63;5010869;28;19977;-83
2022/07/04 12:04:41;;;;;;;;;;;;;;;44.18;26.04;97390.56;5011004;28;19913;-83
2022/07/04 12:07:10;;;;;;;;;;;;;;;44.29;25.69;97387.53;5011072;28;19921;-84
2022/07/04 12:09:36;;;;;;;;;;;;;;;44.17;25.78;97380.47;5010464;28;19925;-83
2022/07/04 12:12:01;;;;;;;;;;;;;;;43.16;26.40;97376.69;5010700;28;19913;-83
2022/07/04 12:14:27;;;;;;;;;;;;;;;42.49;27.14;97372.38;4994415;28;19919;-84
2022/07/04 12:17:08;;;;;;;;;;;;;;;41.71;28.31;97357.91;4995395;28;19995;-83
2022/07/04 12:19:34;;;;;;;;;;;;;;;41.54;28.17;97360.34;5012073;28;19917;-84
2022/07/04 12:21:59;;;;;;;;;;;;;;;42.11;27.33;97363.06;5010930;28;19921;-83
2022/07/04 12:24:26;;;;;;;;;;;;;;;42.38;26.66;97353.16;5010451;28;20328;-82
2022/07/04 12:26:51;;;;;;;;;;;;;;;42.24;26.66;97352.25;5026908;28;19913;-84
2022/07/04 12:29:21;;;;;;;;;;;;;;;43.15;25.49;97346.03;5010813;28;19920;-83
2022/07/04 12:31:47;;;;;;;;;;;;;;;43.61;25.29;97349.69;5010176;28;20308;-83
2022/07/04 12:34:16;;;;;;;;;;;;;;;43.26;25.60;97355.13;4990835;28;19997;-82
2022/07/04 12:36:48;;;;;;;;;;;;;;;42.66;25.31;97344.59;4992467;28;19909;-83
2022/07/04 12:39:26;;;;;;;;;;;;;;;43.09;25.65;97341.63;4982919;28;19952;-82
2022/07/04 12:42:03;;;;;;;;;;;;;;;43.54;25.22;97337.13;4994026;28;19913;-83
2022/07/04 12:44:28;;;;;;;;;;;;;;;43.08;25.38;97340.78;4989038;28;19913;-84
2022/07/04 12:46:55;;;;;;;;;;;;;;;42.89;26.35;97341.94;4988556;28;19920;-82
2022/07/04 12:49:21;;;;;;;;;;;;;;;43.01;25.28;97340.34;4984718;28;19921;-84
2022/07/04 12:51:46;;;;;;;;;;;;;;;43.06;25.27;97342.25;4988751;28;19914;-83
2022/07/04 12:54:12;;;;;;;;;;;;;;;43.16;25.82;97337.25;4993318;28;19913;-82